createdAt,value
2022-08-07T00:01:44.631Z,102378.91
2022-08-07T00:04:15.516Z,102382.41
2022-08-07T00:06:51.562Z,102394.16
2022-08-07T00:09:20.853Z,102388.88
2022-08-07T00:11:55.615Z,102386.41
2022-08-07T00:14:29.995Z,102384.06
2022-08-07T00:16:59.179Z,102388.03
2022-08-07T00:19:34.070Z,102386.41
2022-08-07T00:22:34.487Z,102386.72
2022-08-07T00:25:04.595Z,102385.09
2022-08-07T00:27:52.913Z,102385.09
2022-08-07T00:30:27.075Z,102383.09
2022-08-07T00:32:56.339Z,102379.09
2022-08-07T00:35:25.127Z,102378.16
2022-08-07T00:37:52.985Z,102387.06
2022-08-07T00:40:39.111Z,102378.97
2022-08-07T00:43:59.339Z,102381.31
2022-08-07T00:46:01.847Z,102374.06
2022-08-07T00:48:31.063Z,102374.88
2022-08-07T00:51:00.874Z,102369.25
2022-08-07T00:53:39.053Z,102369.25
2022-08-07T00:56:17.160Z,102371.25
2022-08-07T00:58:47.167Z,102374.38
2022-08-07T01:01:18.327Z,102377.19
2022-08-07T01:03:56.552Z,102378.84
2022-08-07T01:06:29.109Z,102374.38
2022-08-07T01:08:58.381Z,102376.38
2022-08-07T01:12:23.578Z,102377.19
2022-08-07T01:14:17.051Z,102376.72
2022-08-07T01:16:49.326Z,102381.16
2022-08-07T01:19:19.953Z,102373.91
2022-08-07T01:21:53.314Z,102373.91
2022-08-07T01:24:26.673Z,102374.25
2022-08-07T01:26:54.744Z,102374.25
2022-08-07T01:29:27.909Z,102367.47
2022-08-07T01:32:00.754Z,102370.63
2022-08-07T01:34:33.591Z,102368.97
2022-08-07T01:37:09.685Z,102370.63
2022-08-07T01:39:39.503Z,102376.25
2022-08-07T01:42:38.186Z,102374.59
2022-08-07T01:45:03.895Z,102373.75
2022-08-07T01:48:18.138Z,102373.75
2022-08-07T01:50:29.002Z,102380.56
2022-08-07T01:53:00.099Z,102383.38
2022-08-07T01:55:29.358Z,102376.13
2022-08-07T01:58:06.631Z,102380.91
2022-08-07T02:00:51.627Z,102372.84
2022-08-07T02:03:32.128Z,102372.84
2022-08-07T02:06:31.604Z,102371.97
2022-08-07T02:09:05.258Z,102376.47
2022-08-07T02:12:03.887Z,102371.97
2022-08-07T02:14:36.178Z,102372.84
2022-08-07T02:17:06.267Z,102368.72
2022-08-07T02:20:04.937Z,102369.88
2022-08-07T02:22:25.959Z,102368.72
2022-08-07T02:24:55.824Z,102363.09
2022-08-07T02:27:24.136Z,102363.78
2022-08-07T02:29:54.528Z,102365.44
2022-08-07T02:32:27.021Z,102371.06
2022-08-07T02:34:58.231Z,102367.75
2022-08-07T02:37:28.419Z,102369.41
2022-08-07T02:40:29.818Z,102366.09
2022-08-07T02:42:58.050Z,102362.84
2022-08-07T02:45:58.164Z,102362.00
2022-08-07T02:48:15.509Z,102362.84
2022-08-07T02:50:46.038Z,102362.00
2022-08-07T02:53:15.901Z,102357.22
2022-08-07T02:56:03.934Z,102363.50
2022-08-07T02:58:35.113Z,102359.53
2022-08-07T03:01:05.410Z,102365.16
2022-08-07T03:03:49.844Z,102363.50
2022-08-07T03:06:32.703Z,102365.16
2022-08-07T03:09:02.770Z,102370.31
2022-08-07T03:11:32.934Z,102379.56
2022-08-07T03:14:06.938Z,102371.47
2022-08-07T03:16:34.903Z,102371.47
2022-08-07T03:19:03.468Z,102375.47
2022-08-07T03:21:33.526Z,102363.41
2022-08-07T03:24:20.228Z,102365.34
2022-08-07T03:26:58.859Z,102360.91
2022-08-07T03:29:29.887Z,102362.91
2022-08-07T03:31:57.974Z,102366.53
2022-08-07T03:34:27.616Z,102363.25
2022-08-07T03:36:59.909Z,102360.78
2022-08-07T03:39:45.808Z,102370.38
2022-08-07T03:42:30.031Z,102371.22
2022-08-07T03:44:58.271Z,102381.28
2022-08-07T03:47:47.602Z,102375.16
2022-08-07T03:50:17.573Z,102375.88
2022-08-07T03:52:50.935Z,102383.59
2022-08-07T03:55:19.136Z,102382.31
2022-08-07T03:58:34.531Z,102383.13
2022-08-07T04:00:39.351Z,102381.50
2022-08-07T04:03:16.275Z,102378.69
2022-08-07T04:05:45.814Z,102375.88
2022-08-07T04:08:20.974Z,102381.00
2022-08-07T04:10:54.058Z,102377.38
2022-08-07T04:14:10.927Z,102379.84
2022-08-07T04:16:32.691Z,102383.00
2022-08-07T04:19:14.671Z,102386.16
2022-08-07T04:22:04.898Z,102384.50
2022-08-07T04:24:41.289Z,102387.78
2022-08-07T04:27:20.240Z,102385.69
2022-08-07T04:30:01.926Z,102385.19
2022-08-07T04:32:48.967Z,102392.47
2022-08-07T04:35:28.687Z,102395.28
2022-08-07T04:38:07.990Z,102389.66
2022-08-07T04:40:52.027Z,102392.47
2022-08-07T04:44:12.905Z,102396.44
2022-08-07T04:46:35.873Z,102394.78
2022-08-07T04:49:17.843Z,102392.47
2022-08-07T04:51:52.021Z,102394.78
2022-08-07T04:54:22.899Z,102394.31
2022-08-07T04:58:12.486Z,102395.13
2022-08-07T05:00:14.159Z,102402.03
2022-08-07T05:02:43.521Z,102400.41
2022-08-07T05:05:53.799Z,102393.16
2022-08-07T05:08:04.504Z,102398.78
2022-08-07T05:10:35.130Z,102398.78
2022-08-07T05:13:10.063Z,102395.97
2022-08-07T05:15:53.855Z,102398.78
2022-08-07T05:18:27.334Z,102399.25
2022-08-07T05:21:05.848Z,102400.41
2022-08-07T05:23:37.537Z,102406.03
2022-08-07T05:26:13.822Z,102403.22
2022-08-07T05:28:50.453Z,102405.22
2022-08-07T05:31:23.509Z,102404.38
2022-08-07T05:34:04.311Z,102408.84
2022-08-07T05:36:36.047Z,102402.41
2022-08-07T05:40:05.842Z,102404.38
2022-08-07T05:42:06.343Z,102401.22
2022-08-07T05:44:41.552Z,102411.66
2022-08-07T05:47:21.372Z,102404.03
2022-08-07T05:50:09.039Z,102406.03
2022-08-07T05:52:37.959Z,102407.66
2022-08-07T05:55:10.753Z,102411.66
2022-08-07T05:57:42.526Z,102414.97
2022-08-07T06:00:16.531Z,102407.66
2022-08-07T06:02:51.880Z,102411.81
2022-08-07T06:05:28.175Z,102412.16
2022-08-07T06:08:13.235Z,102412.63
2022-08-07T06:10:51.210Z,102416.72
2022-08-07T06:13:20.876Z,102410.63
2022-08-07T06:16:10.196Z,102421.53
2022-08-07T06:18:43.144Z,102421.88
2022-08-07T06:22:16.519Z,102415.91
2022-08-07T06:24:45.945Z,102418.41
2022-08-07T06:26:58.404Z,102411.59
2022-08-07T06:29:31.536Z,102410.78
2022-08-07T06:31:59.860Z,102411.25
2022-08-07T06:34:30.508Z,102420.84
2022-08-07T06:37:02.589Z,102428.13
2022-08-07T06:40:13.411Z,102428.13
2022-08-07T06:42:33.144Z,102425.78
2022-08-07T06:45:12.481Z,102429.75
2022-08-07T06:47:57.807Z,102431.41
2022-08-07T06:50:30.675Z,102431.06
2022-08-07T06:53:04.188Z,102429.41
2022-08-07T06:55:54.137Z,102431.06
2022-08-07T06:58:24.525Z,102429.09
2022-08-07T07:01:03.508Z,102419.47
2022-08-07T07:03:47.591Z,102424.28
2022-08-07T07:06:26.068Z,102425.09
2022-08-07T07:08:58.144Z,102417.84
2022-08-07T07:12:10.788Z,102422.75
2022-08-07T07:14:14.341Z,102422.75
2022-08-07T07:16:49.683Z,102428.88
2022-08-07T07:19:55.463Z,102432.00
2022-08-07T07:22:33.785Z,102434.97
2022-08-07T07:25:14.240Z,102420.44
2022-08-07T07:27:56.167Z,102420.44
2022-08-07T07:30:38.616Z,102422.09
2022-08-07T07:33:11.443Z,102423.72
2022-08-07T07:35:44.025Z,102418.09
2022-08-07T07:38:24.344Z,102419.75
2022-08-07T07:40:57.652Z,102416.94
2022-08-07T07:44:14.344Z,102413.81
2022-08-07T07:46:53.525Z,102408.50
2022-08-07T07:49:09.122Z,102404.50
2022-08-07T07:51:58.232Z,102403.38
2022-08-07T07:54:27.719Z,102396.56
2022-08-07T07:56:57.500Z,102389.31
2022-08-07T07:59:52.732Z,102393.41
2022-08-07T08:02:33.934Z,102389.44
2022-08-07T08:05:01.235Z,102384.63
2022-08-07T08:07:35.773Z,102384.63
2022-08-07T08:10:10.839Z,102383.47
2022-08-07T08:12:52.176Z,102382.31
2022-08-07T08:15:26.930Z,102379.50
2022-08-07T08:18:18.393Z,102386.28
2022-08-07T08:20:47.962Z,102383.13
2022-08-07T08:23:34.801Z,102378.31
2022-08-07T08:26:23.369Z,102376.31
2022-08-07T08:28:54.665Z,102378.31
2022-08-07T08:31:30.399Z,102371.53
2022-08-07T08:34:12.474Z,102371.53
2022-08-07T08:36:49.398Z,102374.34
2022-08-07T08:39:25.711Z,102381.59
2022-08-07T08:42:09.259Z,102373.16
2022-08-07T08:44:44.670Z,102369.53
2022-08-07T08:47:17.434Z,102373.66
2022-08-07T08:50:02.715Z,102368.03
2022-08-07T08:52:36.100Z,102379.28
2022-08-07T08:55:07.716Z,102374.47
2022-08-07T08:57:36.843Z,102366.84
2022-08-07T09:00:08.428Z,102359.25
2022-08-07T09:02:39.048Z,102372.47
2022-08-07T09:05:14.767Z,102360.06
2022-08-07T09:07:46.149Z,102358.41
2022-08-07T09:10:27.424Z,102361.22
2022-08-07T09:12:58.471Z,102360.06
2022-08-07T09:16:20.695Z,102354.91
2022-08-07T09:18:25.785Z,102358.53
2022-08-07T09:21:01.919Z,102350.94
2022-08-07T09:24:30.793Z,102352.59
2022-08-07T09:26:25.612Z,102355.41
2022-08-07T09:30:05.875Z,102352.22
2022-08-07T09:31:48.616Z,102349.78
2022-08-07T09:34:21.842Z,102344.97
2022-08-07T09:36:57.191Z,102345.78
2022-08-07T09:39:55.212Z,102342.97
2022-08-07T09:42:25.043Z,102341.78
2022-08-07T09:47:24.823Z,102333.34
2022-08-07T09:47:59.590Z,102332.19
2022-08-07T09:50:32.903Z,102329.38
2022-08-07T09:53:02.265Z,102323.75
2022-08-07T09:56:03.467Z,102328.22
2022-08-07T09:58:32.389Z,102326.22
2022-08-07T10:01:08.412Z,102323.75
2022-08-07T10:04:14.224Z,102314.16
2022-08-07T10:07:01.928Z,102324.25
2022-08-07T10:10:00.229Z,102315.81
2022-08-07T10:12:39.817Z,102318.59
2022-08-07T10:15:26.178Z,102303.38
2022-08-07T10:18:09.629Z,102309.00
2022-08-07T10:20:44.617Z,102305.00
2022-08-07T10:24:05.694Z,102302.19
2022-08-07T10:26:17.701Z,102293.75
2022-08-07T10:28:56.812Z,102292.94
2022-08-07T10:31:45.215Z,102287.31
2022-08-07T10:34:27.076Z,102288.13
2022-08-07T10:37:05.574Z,102277.69
2022-08-07T10:40:03.106Z,102279.69
2022-08-07T10:42:37.277Z,102284.13
2022-08-07T10:45:11.122Z,102278.50
2022-08-07T10:47:51.594Z,102272.88
2022-08-07T10:50:25.759Z,102268.91
2022-08-07T10:53:08.344Z,102268.91
2022-08-07T10:55:45.457Z,102257.66
2022-08-07T10:58:17.134Z,102254.84
2022-08-07T11:00:50.562Z,102252.03
2022-08-07T11:03:28.207Z,102247.25
2022-08-07T11:06:08.509Z,102244.44
2022-08-07T11:08:41.391Z,102245.25
2022-08-07T11:11:10.318Z,102243.59
2022-08-07T11:14:44.470Z,102246.06
2022-08-07T11:16:30.586Z,102239.63
2022-08-07T11:19:00.247Z,102245.25
2022-08-07T11:21:31.924Z,102234.00
2022-08-07T11:24:03.384Z,102232.81
2022-08-07T11:26:33.273Z,102230.00
2022-08-07T11:29:13.163Z,102226.38
2022-08-07T11:32:02.554Z,102221.56
2022-08-07T11:34:32.800Z,102227.19
2022-08-07T11:37:04.995Z,102227.19
2022-08-07T11:40:00.178Z,102226.06
2022-08-07T11:42:33.656Z,102215.94
2022-08-07T11:45:08.229Z,102216.78
2022-08-07T11:47:56.606Z,102214.78
2022-08-07T11:50:33.164Z,102212.81
2022-08-07T11:53:05.834Z,102207.19
2022-08-07T11:56:09.619Z,102196.75
2022-08-07T11:58:35.376Z,102199.56
2022-08-07T12:01:11.509Z,102195.09
2022-08-07T12:03:55.368Z,102191.13
2022-08-07T12:06:38.981Z,102192.75
2022-08-07T12:09:09.605Z,102191.13
2022-08-07T12:12:09.764Z,102184.31
2022-08-07T12:14:37.316Z,102187.13
2022-08-07T12:17:06.713Z,102181.50
2022-08-07T12:20:02.741Z,102184.31
2022-08-07T12:22:39.149Z,102177.53
2022-08-07T12:26:05.583Z,102176.69
2022-08-07T12:28:31.019Z,102183.16
2022-08-07T12:31:00.875Z,102180.34
2022-08-07T12:34:00.611Z,102173.53
2022-08-07T12:36:19.956Z,102173.06
2022-08-07T12:39:03.342Z,102176.34
2022-08-07T12:41:52.178Z,102173.53
2022-08-07T12:44:21.882Z,102167.09
2022-08-07T12:47:08.084Z,102160.66
2022-08-07T12:49:48.567Z,102161.47
2022-08-07T12:52:23.118Z,102157.84
2022-08-07T12:54:59.051Z,102157.47
2022-08-07T12:57:39.307Z,102158.31
2022-08-07T13:00:32.797Z,102149.03
2022-08-07T13:03:27.071Z,102140.59
2022-08-07T13:06:16.874Z,102147.03
2022-08-07T13:08:52.787Z,102145.88
2022-08-07T13:11:27.341Z,102141.41
2022-08-07T13:13:57.702Z,102142.59
2022-08-07T13:16:31.195Z,102135.78
2022-08-07T13:19:02.757Z,102124.53
2022-08-07T13:21:50.504Z,102123.38
2022-08-07T13:24:21.122Z,102123.38
2022-08-07T13:26:55.689Z,102131.81
2022-08-07T13:29:25.568Z,102126.19
2022-08-07T13:32:06.238Z,102120.56
2022-08-07T13:34:48.599Z,102129.00
2022-08-07T13:37:21.741Z,102114.09
2022-08-07T13:40:33.098Z,102122.19
2022-08-07T13:42:40.355Z,102115.75
2022-08-07T13:46:06.233Z,102110.13
2022-08-07T13:48:06.093Z,102104.47
2022-08-07T13:50:44.521Z,102099.69
2022-08-07T13:53:24.169Z,102098.50
2022-08-07T13:55:54.727Z,102094.88
2022-08-07T13:58:42.055Z,102096.84
2022-08-07T14:01:24.788Z,102090.06
2022-08-07T14:04:07.236Z,102088.41
2022-08-07T14:06:36.678Z,102088.09
2022-08-07T14:09:07.178Z,102087.25
2022-08-07T14:11:53.630Z,102074.84
2022-08-07T14:14:28.412Z,102076.00
2022-08-07T14:16:59.993Z,102081.63
2022-08-07T14:20:41.229Z,102074.03
2022-08-07T14:22:38.148Z,102063.59
2022-08-07T14:25:08.623Z,102063.59
2022-08-07T14:28:10.895Z,102063.59
2022-08-07T14:33:15.599Z,102063.59
2022-08-07T14:35:55.691Z,102058.78
2022-08-07T14:38:30.919Z,102064.41
2022-08-07T14:41:04.122Z,102061.59
2022-08-07T14:43:57.646Z,102057.97
2022-08-07T14:49:17.427Z,102053.97
2022-08-07T14:52:04.913Z,102051.16
2022-08-07T14:54:42.851Z,102048.34
2022-08-07T14:57:18.860Z,102049.16
2022-08-07T15:00:05.821Z,102049.97
2022-08-07T15:02:35.206Z,102049.16
2022-08-07T15:05:20.493Z,102042.72
2022-08-07T15:10:58.696Z,102038.72
2022-08-07T15:13:35.865Z,102033.09
2022-08-07T15:16:11.477Z,102033.09
2022-08-07T15:18:40.126Z,102038.34
2022-08-07T15:21:58.428Z,102031.91
2022-08-07T15:25:15.837Z,102025.47
2022-08-07T15:27:01.176Z,102023.47
2022-08-07T15:35:08.646Z,102023.47
2022-08-07T15:38:17.336Z,102032.72
2022-08-07T15:40:34.563Z,102023.47
2022-08-07T15:46:32.129Z,102027.09
2022-08-07T15:49:03.725Z,102026.28
2022-08-07T15:54:27.048Z,102029.91
2022-08-07T15:56:57.282Z,102015.84
2022-08-07T15:59:39.736Z,102018.31
2022-08-07T16:02:15.194Z,102022.28
2022-08-07T16:04:44.062Z,102019.47
2022-08-07T16:08:32.439Z,102009.88
2022-08-07T16:10:02.862Z,102018.31
2022-08-07T16:12:34.985Z,102014.66
2022-08-07T16:15:10.266Z,102013.84
2022-08-07T16:18:01.697Z,102011.03
2022-08-07T16:20:43.044Z,102011.50
2022-08-07T16:23:53.518Z,102009.03
2022-08-07T16:26:16.401Z,102011.84
2022-08-07T16:30:06.346Z,102004.25
2022-08-07T16:31:58.288Z,102005.88
2022-08-07T16:34:28.444Z,102005.06
2022-08-07T16:38:03.357Z,102005.88
2022-08-07T16:40:05.185Z,102005.06
2022-08-07T16:42:36.501Z,102000.25
2022-08-07T16:45:15.557Z,102003.06
2022-08-07T16:48:28.467Z,102005.88
2022-08-07T16:51:21.620Z,101994.63
2022-08-07T16:54:19.035Z,102004.72
2022-08-07T16:56:57.260Z,102006.69
2022-08-07T16:59:45.786Z,102000.25
2022-08-07T17:02:51.164Z,102000.25
2022-08-07T17:06:02.060Z,102005.88
2022-08-07T17:08:20.923Z,101997.91
2022-08-07T17:10:55.628Z,101998.63
2022-08-07T17:13:41.898Z,102005.88
2022-08-07T17:16:24.894Z,102000.25
2022-08-07T17:19:01.337Z,102001.06
2022-08-07T17:21:50.669Z,102005.53
2022-08-07T17:24:28.039Z,102006.34
2022-08-07T17:26:56.715Z,102004.72
2022-08-07T17:30:16.083Z,102013.16
2022-08-07T17:32:30.919Z,102009.16
2022-08-07T17:35:51.679Z,102009.16
2022-08-07T17:38:08.173Z,101997.91
2022-08-07T17:40:50.392Z,102009.97
2022-08-07T17:43:20.024Z,102005.16
2022-08-07T17:46:11.388Z,102003.53
2022-08-07T17:48:41.036Z,102003.53
2022-08-07T17:51:11.587Z,102009.97
2022-08-07T17:54:00.934Z,102013.16
2022-08-07T17:56:30.745Z,102009.97
2022-08-07T17:59:00.732Z,102010.78
2022-08-07T18:01:36.843Z,101999.53
2022-08-07T18:04:16.513Z,102005.16
2022-08-07T18:06:47.305Z,101995.91
2022-08-07T18:10:05.077Z,102010.78
2022-08-07T18:12:28.650Z,101996.72
2022-08-07T18:15:00.883Z,102012.44
2022-08-07T18:18:47.682Z,102005.16
2022-08-07T18:21:03.599Z,102009.63
2022-08-07T18:23:41.872Z,102011.59
2022-08-07T18:26:00.993Z,102015.25
2022-08-07T18:28:34.385Z,102011.59
2022-08-07T18:31:09.240Z,102008.78
2022-08-07T18:33:56.003Z,102016.41
2022-08-07T18:36:33.274Z,102013.59
2022-08-07T18:40:08.670Z,102019.72
2022-08-07T18:41:56.326Z,102016.41
2022-08-07T18:44:31.535Z,102016.41
2022-08-07T18:47:02.377Z,102022.03
2022-08-07T18:50:31.879Z,102023.69
2022-08-07T18:52:52.754Z,102030.16
2022-08-07T18:55:41.056Z,102034.97
2022-08-07T18:58:29.764Z,102029.34
2022-08-07T19:01:07.367Z,102035.78
2022-08-07T19:03:59.119Z,102035.78
2022-08-07T19:06:33.693Z,102034.97
2022-08-07T19:09:09.292Z,102040.59
2022-08-07T19:12:05.663Z,102041.41
2022-08-07T19:15:00.789Z,102045.03
2022-08-07T19:18:01.512Z,102042.22
2022-08-07T19:20:28.895Z,102042.22
2022-08-07T19:23:03.259Z,102042.22
2022-08-07T19:26:22.769Z,102039.41
2022-08-07T19:30:55.162Z,102050.66
2022-08-07T19:31:37.385Z,102047.84
2022-08-07T19:34:14.819Z,102051.84
2022-08-07T19:37:10.423Z,102045.84
2022-08-07T19:39:57.251Z,102042.22
2022-08-07T19:42:30.268Z,102054.28
2022-08-07T19:45:00.674Z,102057.91
2022-08-07T19:47:38.256Z,102062.38
2022-08-07T19:50:41.499Z,102059.09
2022-08-07T19:53:00.981Z,102053.94
2022-08-07T19:55:46.812Z,102067.19
2022-08-07T19:58:28.000Z,102066.38
2022-08-07T20:00:57.235Z,102060.72
2022-08-07T20:03:33.642Z,102064.72
2022-08-07T20:06:06.033Z,102066.38
2022-08-07T20:08:34.566Z,102070.00
2022-08-07T20:11:03.931Z,102073.63
2022-08-07T20:13:43.224Z,102070.81
2022-08-07T20:16:15.980Z,102072.81
2022-08-07T20:18:59.072Z,102073.63
2022-08-07T20:21:29.120Z,102073.63
2022-08-07T20:24:15.040Z,102082.06
2022-08-07T20:26:50.054Z,102084.88
2022-08-07T20:29:47.873Z,102084.88
2022-08-07T20:32:23.102Z,102090.50
2022-08-07T20:34:55.017Z,102090.50
2022-08-07T20:37:25.380Z,102096.13
2022-08-07T20:40:03.265Z,102087.69
2022-08-07T20:42:33.333Z,102085.69
2022-08-07T20:45:01.372Z,102080.88
2022-08-07T20:47:55.434Z,102086.50
2022-08-07T20:50:20.247Z,102080.06
2022-08-07T20:52:51.061Z,102084.88
2022-08-07T20:55:23.834Z,102085.69
2022-08-07T20:58:03.743Z,102094.97
2022-08-07T21:00:42.629Z,102096.13
2022-08-07T21:03:11.943Z,102096.13
2022-08-07T21:05:50.811Z,102084.88
2022-08-07T21:08:37.297Z,102090.50
2022-08-07T21:11:07.469Z,102085.69
2022-08-07T21:13:57.190Z,102090.50
2022-08-07T21:16:29.281Z,102091.31
2022-08-07T21:18:57.371Z,102098.59
2022-08-07T21:21:27.826Z,102094.97
2022-08-07T21:23:59.898Z,102090.50
2022-08-07T21:26:30.795Z,102096.13
2022-08-07T21:29:02.190Z,102096.94
2022-08-07T21:32:10.857Z,102093.31
2022-08-07T21:34:31.624Z,102090.50
2022-08-07T21:37:01.366Z,102093.31
2022-08-07T21:39:48.200Z,102093.31
2022-08-07T21:42:41.703Z,102097.78
2022-08-07T21:46:05.256Z,102103.41
2022-08-07T21:47:59.831Z,102098.94
2022-08-07T21:50:32.710Z,102096.94
2022-08-07T21:53:07.658Z,102096.13
2022-08-07T21:55:42.332Z,102097.78
2022-08-07T21:58:12.161Z,102096.13
2022-08-07T22:00:41.247Z,102096.13
2022-08-07T22:03:11.139Z,102092.97
2022-08-07T22:05:49.806Z,102094.97
2022-08-07T22:08:18.664Z,102092.16
2022-08-07T22:10:49.671Z,102094.97
2022-08-07T22:13:24.643Z,102092.50
2022-08-07T22:16:39.066Z,102094.97
2022-08-07T22:18:56.999Z,102094.13
2022-08-07T22:22:05.410Z,102096.13
2022-08-07T22:24:16.237Z,102096.13
2022-08-07T22:26:46.486Z,102096.13
2022-08-07T22:29:16.708Z,102097.78
2022-08-07T22:32:05.496Z,102103.41
2022-08-07T22:34:37.108Z,102096.13
2022-08-07T22:37:09.665Z,102104.59
2022-08-07T22:39:52.550Z,102085.69
2022-08-07T22:42:25.994Z,102098.13
2022-08-07T22:44:59.755Z,102096.13
2022-08-07T22:47:34.018Z,102096.13
2022-08-07T22:50:11.121Z,102099.75
2022-08-07T22:52:59.949Z,102100.94
2022-08-07T22:55:30.765Z,102095.31
2022-08-07T22:58:03.798Z,102097.78
2022-08-07T23:00:33.448Z,102101.75
2022-08-07T23:03:04.208Z,102097.78
2022-08-07T23:06:07.730Z,102099.75
2022-08-07T23:08:47.936Z,102096.94
2022-08-07T23:11:25.779Z,102096.13
2022-08-07T23:14:15.501Z,102103.41
2022-08-07T23:16:54.685Z,102107.41
2022-08-07T23:19:51.401Z,102109.03
2022-08-07T23:22:24.002Z,102104.59
2022-08-07T23:24:55.682Z,102108.22
2022-08-07T23:27:33.952Z,102110.22
2022-08-07T23:30:39.126Z,102104.59
2022-08-07T23:34:23.925Z,102107.41
2022-08-07T23:36:03.758Z,102104.59
2022-08-07T23:38:47.061Z,102109.03
2022-08-07T23:41:33.426Z,102111.03
2022-08-07T23:44:29.622Z,102102.94
2022-08-07T23:47:10.967Z,102100.13
2022-08-07T23:49:50.423Z,102105.75
2022-08-07T23:53:00.816Z,102100.13
2022-08-07T23:55:09.665Z,102101.75
2022-08-07T23:57:37.736Z,102104.59
